Time;durP1;ratioP1;P1;durP2;ratioP2;P2;SDS_P1;SDS_P2;PMS_P1;PMS_P2;Temp;Humidity;BMP_temperature;BMP_pressure;BME280_temperature;BME280_humidity;BME280_pressure;Samples;Min_cycle;Max_cycle;Signal;HPM_P1;HPM_P2
2024/01/25 00:00:48;;;;;;;65.03;42.00;;;;;;;1.55;100.00;103392.31;5065362;28;20403;-71
2024/01/25 00:03:13;;;;;;;63.35;42.58;;;;;;;1.32;100.00;103362.44;5057216;28;20029;-73
2024/01/25 00:05:38;;;;;;;56.53;39.78;;;;;;;2.08;100.00;103442.50;5062783;28;20512;-72
2024/01/25 00:08:04;;;;;;;62.92;40.92;;;;;;;2.26;100.00;103513.88;5059289;28;20028;-71
2024/01/25 00:10:29;;;;;;;55.35;36.70;;;;;;;1.30;100.00;103346.44;5058126;28;20105;-71
2024/01/25 00:12:55;;;;;;;49.17;33.03;;;;;;;2.40;100.00;103486.38;5061590;28;20029;-73
2024/01/25 00:15:20;;;;;;;49.13;32.60;;;;;;;2.43;100.00;103538.41;5054836;28;20029;-71
2024/01/25 00:17:46;;;;;;;49.38;33.05;;;;;;;2.50;100.00;103500.34;5055852;28;20037;-71
2024/01/25 00:20:11;;;;;;;49.08;32.33;;;;;;;2.38;100.00;103421.78;5059237;28;20040;-72
2024/01/25 00:22:38;;;;;;;49.65;33.33;;;;;;;2.29;100.00;103551.75;5061477;28;20407;-71
2024/01/25 00:25:03;;;;;;;51.90;34.60;;;;;;;1.60;100.00;103350.00;5063078;28;20173;-71
2024/01/25 00:27:29;;;;;;;48.67;31.48;;;;;;;1.14;100.00;103316.16;5060660;28;20115;-72
2024/01/25 00:29:54;;;;;;;46.40;29.60;;;;;;;2.13;100.00;103459.56;5065526;28;20097;-72
2024/01/25 00:32:20;;;;;;;42.75;28.98;;;;;;;1.45;100.00;103336.50;5063758;28;20029;-72
2024/01/25 00:34:45;;;;;;;44.13;28.52;;;;;;;0.91;100.00;103255.34;5066290;28;20139;-74
2024/01/25 00:37:11;;;;;;;43.80;29.25;;;;;;;1.85;100.00;103417.59;5059824;28;20051;-72
2024/01/25 00:39:37;;;;;;;49.63;31.92;;;;;;;2.18;100.00;103503.38;5062360;28;20029;-71
2024/01/25 00:42:06;;;;;;;46.65;30.73;;;;;;;2.07;100.00;103475.88;5057805;28;20037;-72
2024/01/25 00:44:32;;;;;;;49.33;31.38;;;;;;;1.40;100.00;103353.78;5061410;28;20118;-73
2024/01/25 00:46:58;;;;;;;46.60;31.40;;;;;;;2.25;100.00;103514.69;5062853;28;20124;-73
2024/01/25 00:49:24;;;;;;;48.58;31.83;;;;;;;1.42;100.00;103451.59;5061805;28;20115;-72
2024/01/25 00:51:55;;;;;;;47.53;31.45;;;;;;;1.54;100.00;103365.53;5065899;28;20024;-71
2024/01/25 00:54:21;;;;;;;36.45;24.55;;;;;;;2.34;100.00;103492.66;5061604;28;20533;-74
2024/01/25 00:56:50;;;;;;;49.63;34.30;;;;;;;2.26;100.00;103477.13;5061731;28;20045;-72
2024/01/25 00:59:16;;;;;;;49.35;33.53;;;;;;;1.64;100.00;103374.50;5058629;28;20118;-73
2024/01/25 01:01:46;;;;;;;52.55;35.88;;;;;;;2.16;100.00;103472.28;5058835;28;20565;-70
2024/01/25 01:04:11;;;;;;;56.38;37.78;;;;;;;1.10;100.00;103311.72;5058178;28;20025;-71
2024/01/25 01:06:37;;;;;;;58.28;37.28;;;;;;;2.00;100.00;103462.06;5058436;28;20079;-73
2024/01/25 01:09:03;;;;;;;64.60;41.05;;;;;;;1.62;100.00;103444.59;5059866;28;20056;-71
2024/01/25 01:11:30;;;;;;;66.10;39.80;;;;;;;1.53;100.00;103400.50;5064578;28;20159;-71
2024/01/25 01:13:55;;;;;;;60.17;39.40;;;;;;;1.56;100.00;103484.34;5058353;28;20024;-73
2024/01/25 01:16:21;;;;;;;51.53;35.65;;;;;;;1.95;100.00;103512.72;5064459;28;20032;-71
2024/01/25 01:18:46;;;;;;;51.50;34.50;;;;;;;2.03;100.00;103506.56;5059903;28;20041;-72
2024/01/25 01:21:14;;;;;;;48.33;33.20;;;;;;;2.09;100.00;103542.06;5055434;28;20407;-72
2024/01/25 01:23:39;;;;;;;49.92;34.70;;;;;;;1.64;100.00;103575.94;5055543;28;20525;-71
2024/01/25 01:26:05;;;;;;;52.30;35.22;;;;;;;2.10;100.00;103589.00;5062569;28;20032;-72
2024/01/25 01:28:31;;;;;;;52.95;35.03;;;;;;;2.19;100.00;103592.09;5060336;28;20033;-75
2024/01/25 01:30:56;;;;;;;57.25;34.80;;;;;;;1.44;100.00;103465.09;5058975;28;20033;-71
2024/01/25 01:33:22;;;;;;;52.40;33.60;;;;;;;1.23;100.00;103449.53;5057850;28;20039;-71
2024/01/25 01:35:47;;;;;;;52.75;35.88;;;;;;;1.47;100.00;103486.22;5059450;28;20025;-72
2024/01/25 01:38:13;;;;;;;46.70;30.75;;;;;;;1.97;100.00;103622.44;5056405;28;20178;-72
2024/01/25 01:40:38;;;;;;;43.83;29.95;;;;;;;1.97;100.00;103601.50;5060808;28;20037;-71
2024/01/25 01:43:04;;;;;;;43.00;29.17;;;;;;;0.62;100.00;103401.13;5059131;28;20037;-71
2024/01/25 01:45:29;;;;;;;36.28;25.17;;;;;;;1.56;100.00;103572.09;5062100;28;20029;-71
2024/01/25 01:47:56;;;;;;;35.30;23.95;;;;;;;2.08;100.00;103663.31;5062563;28;20033;-76
2024/01/25 01:50:22;;;;;;;34.08;24.20;;;;;;;2.10;100.00;103672.66;5057289;28;20028;-71
2024/01/25 01:52:48;;;;;;;38.28;24.95;;;;;;;2.23;100.00;103707.84;5057540;28;20491;-71
2024/01/25 01:55:14;;;;;;;35.55;23.98;;;;;;;1.53;100.00;103604.44;5055879;28;20056;-74
2024/01/25 01:57:40;;;;;;;37.55;24.50;;;;;;;0.80;100.00;103493.38;5056734;28;20051;-70
2024/01/25 02:00:09;;;;;;;35.70;24.20;;;;;;;1.43;100.00;103583.66;5062512;28;20063;-71
2024/01/25 02:02:35;;;;;;;32.55;22.42;;;;;;;2.21;100.00;103758.72;5060004;28;20910;-71
2024/01/25 02:05:01;;;;;;;33.13;22.80;;;;;;;2.09;100.00;103730.28;5057473;28;20517;-71
2024/01/25 02:07:28;;;;;;;34.03;22.55;;;;;;;2.34;100.00;103772.16;5062810;28;20102;-71
2024/01/25 02:09:53;;;;;;;34.60;23.38;;;;;;;2.20;100.00;103777.91;5056474;28;20060;-72
2024/01/25 02:12:19;;;;;;;35.30;23.50;;;;;;;1.45;100.00;103633.16;5054176;28;20056;-72
2024/01/25 02:14:45;;;;;;;35.25;23.02;;;;;;;1.80;100.00;103697.34;5055036;28;20566;-73
2024/01/25 02:17:11;;;;;;;33.80;23.02;;;;;;;1.30;100.00;103657.19;5059816;28;20494;-72
2024/01/25 02:19:36;;;;;;;33.42;22.35;;;;;;;2.08;100.00;103777.06;5069700;28;20032;-72
2024/01/25 02:22:04;;;;;;;31.05;21.60;;;;;;;1.16;100.00;103624.41;5057953;28;20063;-72
2024/01/25 02:24:29;;;;;;;30.65;21.30;;;;;;;2.10;100.00;103715.31;5054394;28;20090;-72
2024/01/25 02:26:55;;;;;;;35.17;21.48;;;;;;;1.92;100.00;103778.47;5058662;28;20066;-71
2024/01/25 02:29:21;;;;;;;34.42;22.98;;;;;;;1.58;100.00;103735.16;5060533;28;20037;-78
2024/01/25 02:31:46;;;;;;;30.35;21.35;;;;;;;2.34;100.00;103869.19;5056555;28;20025;-75
2024/01/25 02:34:11;;;;;;;31.23;22.15;;;;;;;2.09;100.00;103868.28;5057935;28;20037;-71
2024/01/25 02:36:37;;;;;;;33.45;21.88;;;;;;;1.86;100.00;103841.63;5054910;28;20048;-72
2024/01/25 02:39:04;;;;;;;34.10;21.73;;;;;;;1.24;100.00;103784.56;5057389;28;20447;-71
2024/01/25 02:41:32;;;;;;;32.50;22.88;;;;;;;2.03;100.00;103863.72;5058388;28;20108;-73
2024/01/25 02:43:58;;;;;;;34.90;23.40;;;;;;;2.06;100.00;103931.69;5058469;28;20498;-72
2024/01/25 02:46:23;;;;;;;33.97;24.00;;;;;;;2.07;100.00;103953.53;5055906;28;20028;-72
2024/01/25 02:48:49;;;;;;;38.22;25.45;;;;;;;2.28;100.00;104026.94;5058441;28;20029;-71
2024/01/25 02:51:14;;;;;;;39.55;26.90;;;;;;;2.10;100.00;103963.75;5055796;28;20117;-70
2024/01/25 02:53:40;;;;;;;41.15;27.58;;;;;;;2.09;100.00;104042.34;5057839;28;20044;-71
2024/01/25 02:56:06;;;;;;;43.45;27.52;;;;;;;0.79;100.00;103751.19;5058226;28;20035;-71
2024/01/25 02:58:32;;;;;;;36.67;25.65;;;;;;;1.59;100.00;103898.22;5060567;28;20023;-71
2024/01/25 03:01:05;;;;;;;36.10;25.95;;;;;;;1.63;100.00;103940.31;5054484;28;20513;-70
2024/01/25 03:03:30;;;;;;;39.60;25.55;;;;;;;1.28;100.00;103874.22;5059092;28;20025;-72
2024/01/25 03:05:55;;;;;;;42.30;26.10;;;;;;;1.40;100.00;103902.69;5050304;28;20032;-71
2024/01/25 03:08:21;;;;;;;37.15;26.30;;;;;;;1.17;100.00;103890.09;5060281;28;20111;-70
2024/01/25 03:10:49;;;;;;;38.00;25.52;;;;;;;0.53;100.00;103766.81;5061033;28;20020;-72
2024/01/25 03:13:16;;;;;;;40.33;26.60;;;;;;;0.70;100.00;103824.00;5060581;28;20036;-71
2024/01/25 03:15:42;;;;;;;39.25;26.60;;;;;;;1.76;100.00;104034.88;5053508;28;20097;-71
2024/01/25 03:18:07;;;;;;;40.42;27.83;;;;;;;0.98;100.00;103884.50;5058473;28;20509;-73
2024/01/25 03:20:33;;;;;;;39.47;26.98;;;;;;;1.39;100.00;103961.09;5053056;28;20024;-74
2024/01/25 03:22:58;;;;;;;43.90;27.95;;;;;;;1.58;100.00;104034.41;5065045;28;20112;-71
2024/01/25 03:25:23;;;;;;;42.80;29.42;;;;;;;0.70;100.00;103901.63;5052705;28;20573;-73
2024/01/25 03:27:49;;;;;;;38.88;27.40;;;;;;;1.44;100.00;104097.69;5059976;28;20029;-74
2024/01/25 03:30:15;;;;;;;40.55;28.05;;;;;;;1.04;100.00;103971.75;5049129;28;20396;-73
2024/01/25 03:32:40;;;;;;;41.15;29.20;;;;;;;0.94;100.00;103945.16;5053045;28;20116;-72
2024/01/25 03:35:06;;;;;;;42.45;29.70;;;;;;;0.59;100.00;103887.44;5052440;28;20044;-73
2024/01/25 03:37:31;;;;;;;39.33;27.83;;;;;;;1.57;100.00;104075.28;5049927;28;20037;-71
2024/01/25 03:39:57;;;;;;;43.05;29.30;;;;;;;1.42;100.00;104068.25;5052804;28;20063;-72
2024/01/25 03:42:22;;;;;;;40.83;29.17;;;;;;;1.19;100.00;104023.91;5049833;28;20025;-73
2024/01/25 03:44:48;;;;;;;44.28;28.35;;;;;;;0.52;100.00;103921.88;5049700;28;20025;-73
2024/01/25 03:47:13;;;;;;;43.05;28.05;;;;;;;1.24;100.00;104045.19;5048253;28;20025;-72
2024/01/25 03:49:39;;;;;;;43.30;28.95;;;;;;;1.22;100.00;103995.69;5049899;28;20029;-72
2024/01/25 03:52:05;;;;;;;40.20;28.27;;;;;;;1.43;100.00;104004.78;5053827;28;20032;-74
2024/01/25 03:54:30;;;;;;;45.10;28.98;;;;;;;0.91;100.00;103947.44;5050767;28;20056;-73
2024/01/25 03:56:56;;;;;;;40.42;27.20;;;;;;;1.64;100.00;104087.50;5058438;28;20086;-74
2024/01/25 03:59:21;;;;;;;41.58;29.27;;;;;;;3.01;100.00;104259.16;5068796;28;20040;-72
2024/01/25 04:01:47;;;;;;;42.35;29.08;;;;;;;1.73;100.00;104133.34;5059842;28;20028;-72
2024/01/25 04:04:15;;;;;;;41.55;27.48;;;;;;;0.57;100.00;103896.47;5061511;28;20103;-72
2024/01/25 04:06:45;;;;;;;43.10;29.10;;;;;;;1.38;100.00;104096.34;5057235;28;20497;-76
2024/01/25 04:09:11;;;;;;;48.38;31.00;;;;;;;0.41;100.00;103912.69;5064650;28;20044;-71
2024/01/25 04:11:37;;;;;;;50.78;33.95;;;;;;;0.57;100.00;103941.50;5064515;28;20123;-71
2024/01/25 04:14:04;;;;;;;48.75;30.10;;;;;;;1.44;100.00;104092.69;5058948;28;20498;-71
2024/01/25 04:16:29;;;;;;;43.00;29.45;;;;;;;1.49;100.00;104120.56;5061568;28;20025;-71
2024/01/25 04:18:55;;;;;;;52.38;31.75;;;;;;;0.98;100.00;104061.47;5064036;28;20093;-73
2024/01/25 04:21:20;;;;;;;46.97;30.92;;;;;;;1.35;100.00;104106.13;5062710;28;20379;-74
2024/01/25 04:23:46;;;;;;;49.20;31.77;;;;;;;1.27;100.00;104087.16;5063631;28;20043;-72
2024/01/25 04:26:11;;;;;;;45.53;30.10;;;;;;;-0.05;100.00;103854.13;5065355;28;20033;-76
2024/01/25 04:28:37;;;;;;;45.90;29.60;;;;;;;1.49;100.00;104116.44;5064627;28;20029;-72
2024/01/25 04:31:03;;;;;;;49.35;31.92;;;;;;;1.19;100.00;104076.50;5062936;28;20025;-72
2024/01/25 04:33:29;;;;;;;44.63;31.20;;;;;;;0.54;100.00;103960.41;5062265;28;20033;-74
2024/01/25 04:35:55;;;;;;;46.85;32.17;;;;;;;1.33;100.00;104019.91;5058181;28;20479;-71
2024/01/25 04:38:21;;;;;;;68.03;44.05;;;;;;;0.72;100.00;103981.84;5060456;28;20032;-72
2024/01/25 04:40:46;;;;;;;81.22;51.85;;;;;;;0.74;100.00;103970.31;5057081;28;20119;-72
2024/01/25 04:43:12;;;;;;;74.40;48.88;;;;;;;1.10;100.00;104015.69;5058019;28;20039;-78
2024/01/25 04:45:38;;;;;;;75.80;50.47;;;;;;;0.83;100.00;103946.84;5058992;28;20063;-72
2024/01/25 04:48:04;;;;;;;72.45;48.15;;;;;;;0.30;100.00;103844.28;5070397;28;20104;-71
2024/01/25 04:50:29;;;;;;;69.13;46.35;;;;;;;0.78;100.00;103922.22;5062849;28;20514;-73
2024/01/25 04:52:55;;;;;;;63.50;42.90;;;;;;;0.37;100.00;103833.13;5058894;28;20037;-72
2024/01/25 04:55:20;;;;;;;69.60;44.72;;;;;;;0.85;100.00;103914.44;5068192;28;20052;-72
2024/01/25 04:57:47;;;;;;;64.45;42.30;;;;;;;1.12;100.00;103960.69;5057788;28;20028;-72
2024/01/25 05:00:13;;;;;;;66.72;44.38;;;;;;;0.62;100.00;103764.97;5060511;28;20040;-72
2024/01/25 05:02:39;;;;;;;65.45;43.25;;;;;;;0.96;100.00;103866.00;5063703;28;20605;-72
2024/01/25 05:05:04;;;;;;;70.45;46.10;;;;;;;0.28;100.00;103760.75;5062519;28;20036;-72
2024/01/25 05:07:30;;;;;;;80.88;50.58;;;;;;;0.16;100.00;103716.44;5056206;28;20125;-71
2024/01/25 05:09:55;;;;;;;75.68;49.33;;;;;;;0.08;100.00;103698.34;5059755;28;20449;-71
2024/01/25 05:12:21;;;;;;;86.18;56.47;;;;;;;-0.07;100.00;103665.59;5062398;28;20033;-72
2024/01/25 05:14:46;;;;;;;92.35;56.38;;;;;;;0.01;100.00;103663.66;5062597;28;20029;-72
2024/01/25 05:17:12;;;;;;;85.03;54.28;;;;;;;-0.61;100.00;103571.47;5066295;28;20039;-73
2024/01/25 05:19:37;;;;;;;78.22;52.80;;;;;;;0.95;100.00;103786.59;5061021;28;20021;-72
2024/01/25 05:22:06;;;;;;;81.28;54.28;;;;;;;0.85;100.00;103694.03;5062298;28;20438;-72
2024/01/25 05:24:32;;;;;;;83.55;57.13;;;;;;;0.62;100.00;103744.06;5060293;28;20491;-72
2024/01/25 05:26:58;;;;;;;87.15;56.75;;;;;;;0.52;100.00;103742.53;5061060;28;20056;-72
2024/01/25 05:29:23;;;;;;;78.35;54.40;;;;;;;0.68;100.00;103752.03;5062566;28;20510;-72
2024/01/25 05:31:49;;;;;;;82.40;54.35;;;;;;;1.41;100.00;103831.72;5063567;28;20035;-73
2024/01/25 05:34:15;;;;;;;78.38;53.15;;;;;;;0.06;100.00;103627.31;5062904;28;20029;-79
2024/01/25 05:36:41;;;;;;;69.38;48.13;;;;;;;0.58;100.00;103729.59;5060697;28;20608;-72
2024/01/25 05:39:07;;;;;;;71.72;48.47;;;;;;;1.25;100.00;103848.06;5057843;28;20032;-72
2024/01/25 05:41:33;;;;;;;82.50;56.38;;;;;;;1.41;100.00;103824.19;5059958;28;20031;-71
2024/01/25 05:43:59;;;;;;;88.80;58.28;;;;;;;0.75;100.00;103724.19;5060534;28;20033;-70
2024/01/25 05:46:25;;;;;;;85.00;55.20;;;;;;;0.73;100.00;103763.28;5058950;28;20033;-71
2024/01/25 05:48:50;;;;;;;87.13;57.60;;;;;;;1.54;100.00;103892.03;5059648;28;20430;-72
2024/01/25 05:51:16;;;;;;;96.38;63.83;;;;;;;0.65;100.00;103764.34;5060196;28;20094;-71
2024/01/25 05:53:41;;;;;;;101.82;69.03;;;;;;;1.44;100.00;103907.16;5061573;28;20115;-71
2024/01/25 05:56:07;;;;;;;95.43;63.75;;;;;;;0.97;100.00;103839.31;5062438;28;20033;-70
2024/01/25 05:58:33;;;;;;;92.57;63.78;;;;;;;1.59;100.00;103958.41;5062693;28;20028;-72
2024/01/25 06:00:58;;;;;;;106.43;70.15;;;;;;;1.57;100.00;103928.97;5050900;28;20025;-73
2024/01/25 06:03:24;;;;;;;129.07;87.57;;;;;;;0.93;100.00;103845.75;5052592;28;20036;-72
2024/01/25 06:05:49;;;;;;;130.48;89.50;;;;;;;0.80;100.00;103861.47;5052640;28;20120;-77
2024/01/25 06:08:15;;;;;;;125.38;81.57;;;;;;;1.43;100.00;103954.66;5052680;28;20032;-76
2024/01/25 06:10:40;;;;;;;114.10;76.22;;;;;;;1.82;100.00;104168.28;5053512;28;20037;-77
2024/01/25 06:13:06;;;;;;;105.35;67.03;;;;;;;1.43;100.00;104015.69;5054054;28;20037;-72
2024/01/25 06:15:31;;;;;;;94.07;57.13;;;;;;;0.63;100.00;103878.50;5052530;28;20047;-73
2024/01/25 06:17:57;;;;;;;91.85;56.38;;;;;;;2.08;100.00;104092.44;5052775;28;20502;-75
2024/01/25 06:20:23;;;;;;;92.90;56.72;;;;;;;1.08;100.00;103944.56;5053483;28;20025;-77
2024/01/25 06:22:48;;;;;;;85.28;53.95;;;;;;;1.31;100.00;103974.69;5057731;28;20034;-73
2024/01/25 06:25:14;;;;;;;101.32;61.67;;;;;;;0.98;100.00;103929.59;5056748;28;20040;-76
2024/01/25 06:27:39;;;;;;;130.13;81.32;;;;;;;1.05;100.00;103950.97;5052275;28;20104;-73
2024/01/25 06:30:05;;;;;;;127.20;74.50;;;;;;;2.09;100.00;104141.84;5053988;28;20029;-73
2024/01/25 06:32:31;;;;;;;100.85;60.58;;;;;;;1.55;100.00;104061.75;5052172;28;20031;-72
2024/01/25 06:34:57;;;;;;;111.45;73.28;;;;;;;2.26;100.00;104184.09;5047166;28;20082;-73
2024/01/25 06:37:22;;;;;;;126.75;80.45;;;;;;;1.62;100.00;104080.63;5053633;28;20032;-77
2024/01/25 06:39:48;;;;;;;95.55;60.38;;;;;;;1.43;100.00;104040.78;5053708;28;20037;-73
2024/01/25 06:42:13;;;;;;;88.53;56.58;;;;;;;1.68;100.00;104094.47;5055394;28;20488;-73
2024/01/25 06:44:39;;;;;;;70.60;47.78;;;;;;;2.08;100.00;104127.56;5052042;28;20116;-73
2024/01/25 06:47:05;;;;;;;62.53;42.67;;;;;;;2.30;100.00;104110.75;5052770;28;20121;-75
2024/01/25 06:49:31;;;;;;;55.90;36.20;;;;;;;1.06;100.00;103970.25;5052872;28;20036;-72
2024/01/25 06:51:57;;;;;;;53.60;35.50;;;;;;;2.07;100.00;104203.59;5051219;28;20044;-74
2024/01/25 06:54:23;;;;;;;49.72;32.22;;;;;;;2.06;100.00;104147.50;5050274;28;20041;-76
2024/01/25 06:56:51;;;;;;;45.58;30.73;;;;;;;0.81;100.00;103918.31;5051980;28;20526;-72
2024/01/25 06:59:18;;;;;;;51.63;37.30;;;;;;;2.08;100.00;104255.56;5050944;28;20044;-72
2024/01/25 07:01:43;;;;;;;64.95;42.33;;;;;;;2.12;100.00;104110.31;5053845;28;20045;-71
2024/01/25 07:04:09;;;;;;;54.08;33.38;;;;;;;1.81;100.00;104102.91;5054985;28;20041;-73
2024/01/25 07:06:34;;;;;;;43.70;30.40;;;;;;;2.28;100.00;104201.03;5053027;28;20112;-75
2024/01/25 07:08:59;;;;;;;46.00;27.77;;;;;;;2.13;100.00;104179.84;5049724;28;20075;-77
2024/01/25 07:11:25;;;;;;;39.25;25.50;;;;;;;0.94;100.00;103952.66;5054219;28;20112;-78
2024/01/25 07:13:51;;;;;;;43.13;28.60;;;;;;;2.31;100.00;104268.19;5053386;28;20041;-73
2024/01/25 07:16:16;;;;;;;58.47;34.90;;;;;;;2.33;100.00;104139.50;5061836;28;20068;-71
2024/01/25 07:18:42;;;;;;;39.53;25.77;;;;;;;2.36;100.00;104114.59;5059667;28;20025;-72
2024/01/25 07:21:07;;;;;;;45.25;30.05;;;;;;;2.39;100.00;104172.59;5052803;28;20036;-72
2024/01/25 07:23:33;;;;;;;61.13;33.67;;;;;;;1.78;100.00;104083.53;5050522;28;20032;-74
2024/01/25 07:25:59;;;;;;;48.85;30.20;;;;;;;2.51;100.00;104211.16;5051162;28;20514;-72
2024/01/25 07:28:25;;;;;;;49.80;28.13;;;;;;;1.92;100.00;104107.13;5052869;28;20033;-72
2024/01/25 07:30:50;;;;;;;34.38;23.17;;;;;;;1.53;100.00;104024.78;5052308;28;20081;-71
2024/01/25 07:33:16;;;;;;;38.55;26.05;;;;;;;2.38;100.00;104163.28;5051502;28;20051;-72
2024/01/25 07:35:45;;;;;;;43.85;28.83;;;;;;;2.13;100.00;104132.16;5047643;28;20036;-74
2024/01/25 07:38:19;;;;;;;42.53;28.65;;;;;;;2.31;100.00;104088.31;5051750;28;20024;-72
2024/01/25 07:40:45;;;;;;;36.15;24.67;;;;;;;3.42;100.00;104291.50;5044514;28;20058;-72
2024/01/25 07:43:10;;;;;;;41.70;27.42;;;;;;;3.00;100.00;104263.31;5051970;28;20068;-73
2024/01/25 07:45:36;;;;;;;38.40;27.20;;;;;;;2.60;100.00;104110.44;5052171;28;20028;-71
2024/01/25 07:48:02;;;;;;;35.15;24.25;;;;;;;3.61;100.00;104268.50;5052372;28;20077;-74
2024/01/25 07:50:27;;;;;;;35.28;23.30;;;;;;;3.90;100.00;104308.28;5053222;28;20035;-74
2024/01/25 07:52:54;;;;;;;35.65;23.50;;;;;;;3.89;100.00;104271.28;5050522;28;20499;-74
2024/01/25 07:55:20;;;;;;;37.40;25.25;;;;;;;3.96;100.00;104304.53;5050124;28;20175;-73
2024/01/25 07:57:45;;;;;;;51.38;32.55;;;;;;;3.43;100.00;104137.28;5053454;28;20120;-70
2024/01/25 08:00:11;;;;;;;30.15;21.25;;;;;;;3.84;100.00;104202.16;5047646;28;20033;-71
2024/01/25 08:02:38;;;;;;;35.80;23.45;;;;;;;3.23;100.00;104071.31;5049099;28;20025;-77
2024/01/25 08:05:04;;;;;;;30.17;20.55;;;;;;;4.31;100.00;104196.97;5051745;28;20040;-72
2024/01/25 08:07:29;;;;;;;33.78;22.92;;;;;;;1.75;100.00;103812.41;5049038;28;20033;-74
2024/01/25 08:09:58;;;;;;;33.38;21.83;;;;;;;3.51;100.00;104025.50;5048091;28;20036;-71
2024/01/25 08:12:26;;;;;;;27.77;20.40;;;;;;;4.11;100.00;104114.22;5050634;28;20147;-72
2024/01/25 08:14:52;;;;;;;36.78;23.15;;;;;;;3.89;100.00;104072.41;5046439;28;20037;-70
2024/01/25 08:17:17;;;;;;;34.83;22.58;;;;;;;4.54;100.00;104220.25;5047647;28;20041;-70
2024/01/25 08:19:43;;;;;;;32.75;20.63;;;;;;;4.31;100.00;104096.22;5049548;28;20112;-73
2024/01/25 08:22:09;;;;;;;36.78;22.13;;;;;;;5.41;100.00;104218.31;5049439;28;20120;-74
2024/01/25 08:24:35;;;;;;;33.47;22.23;;;;;;;5.60;100.00;104256.53;5052188;28;20115;-72
2024/01/25 08:27:00;;;;;;;37.85;23.88;;;;;;;3.96;100.00;103973.88;5051535;28;20438;-71
2024/01/25 08:29:26;;;;;;;32.80;22.02;;;;;;;5.41;100.00;104167.84;5049163;28;20040;-71
2024/01/25 08:31:51;;;;;;;28.33;21.02;;;;;;;4.39;100.00;103890.13;5054375;28;20047;-70
2024/01/25 08:34:17;;;;;;;29.77;20.02;;;;;;;4.30;100.00;104006.31;5049974;28;20162;-74
2024/01/25 08:36:42;;;;;;;36.50;22.52;;;;;;;4.03;100.00;103888.78;5052265;28;20075;-73
2024/01/25 08:39:08;;;;;;;32.92;21.90;;;;;;;4.30;100.00;103870.28;5048042;28;20518;-71
2024/01/25 08:41:34;;;;;;;30.20;21.42;;;;;;;4.91;100.00;103973.09;5052631;28;20078;-72
2024/01/25 08:44:00;;;;;;;32.60;22.92;;;;;;;5.16;100.00;103978.84;5053458;28;20063;-72
2024/01/25 08:46:26;;;;;;;54.75;33.20;;;;;;;5.58;100.00;103989.66;5051433;28;20084;-70
2024/01/25 08:48:51;;;;;;;35.58;23.50;;;;;;;7.37;100.00;104234.03;5057021;28;20094;-71
2024/01/25 08:51:16;;;;;;;19.60;10.30;;;;;;;9.38;100.00;104443.19;5059270;28;20031;-73
2024/01/25 08:53:43;;;;;;;8.85;3.30;;;;;;;10.58;100.00;104554.09;5062746;28;20103;-76
2024/01/25 08:56:08;;;;;;;9.07;2.92;;;;;;;10.80;100.00;104467.69;5057233;28;20040;-75
2024/01/25 08:58:34;;;;;;;7.78;3.08;;;;;;;10.97;100.00;104382.69;5057740;28;20506;-74
2024/01/25 09:01:00;;;;;;;11.07;2.33;;;;;;;10.72;100.00;104169.50;5062331;28;20028;-73
2024/01/25 09:03:26;;;;;;;8.82;2.88;;;;;;;11.20;100.00;104201.06;5057939;28;20036;-74
2024/01/25 09:05:51;;;;;;;9.73;2.92;;;;;;;10.76;100.00;104033.88;5059102;28;20053;-72
2024/01/25 09:08:17;;;;;;;8.55;3.50;;;;;;;11.37;100.00;104075.16;5058998;28;20024;-73
2024/01/25 09:10:42;;;;;;;12.90;4.35;;;;;;;11.71;100.00;104095.03;5058213;28;20463;-73
2024/01/25 09:13:09;;;;;;;8.98;2.58;;;;;;;11.24;100.00;103943.06;5063671;28;20033;-74
2024/01/25 09:15:34;;;;;;;6.32;3.08;;;;;;;11.64;100.00;104030.22;5060588;28;20036;-73
2024/01/25 09:18:00;;;;;;;10.02;3.45;;;;;;;11.76;100.00;103935.44;5059283;28;20024;-79
2024/01/25 09:20:25;;;;;;;10.48;3.80;;;;;;;11.98;100.00;103884.28;5063857;28;20048;-73
2024/01/25 09:22:53;;;;;;;13.77;8.30;;;;;;;10.62;100.00;103643.13;5059199;28;20037;-73
2024/01/25 09:25:19;;;;;;;7.47;2.72;;;;;;;12.14;100.00;103780.13;5060999;28;20115;-73
2024/01/25 09:27:45;;;;;;;14.82;2.25;;;;;;;12.14;100.00;103777.59;5057483;28;20538;-74
2024/01/25 09:30:11;;;;;;;25.98;12.57;;;;;;;9.40;100.00;103382.47;5056511;28;20116;-74
2024/01/25 09:32:36;;;;;;;17.48;11.98;;;;;;;9.94;100.00;103445.19;5061763;28;20178;-74
2024/01/25 09:35:02;;;;;;;30.35;18.08;;;;;;;8.80;100.00;103256.13;5058023;28;20037;-74
2024/01/25 09:37:27;;;;;;;13.82;3.72;;;;;;;11.47;100.00;103485.13;5058061;28;20036;-74
2024/01/25 09:39:53;;;;;;;14.80;3.80;;;;;;;12.15;100.00;103639.00;5057426;28;20030;-73
2024/01/25 09:42:19;;;;;;;13.38;2.47;;;;;;;11.65;100.00;103470.25;5057413;28;20025;-73
2024/01/25 09:44:45;;;;;;;7.18;2.10;;;;;;;12.40;100.00;103528.16;5067449;28;20040;-73
2024/01/25 09:47:11;;;;;;;11.32;2.72;;;;;;;12.35;100.00;103416.59;5067741;28;20056;-73
2024/01/25 09:49:44;;;;;;;6.65;2.30;;;;;;;12.31;100.00;103256.63;5057440;28;20039;-73
2024/01/25 09:52:12;;;;;;;17.23;2.72;;;;;;;11.85;100.00;103025.44;5060659;28;20151;-74
2024/01/25 09:54:39;;;;;;;23.25;3.05;;;;;;;12.49;100.00;102997.50;5054201;28;20044;-72
2024/01/25 09:57:18;;;;;;;9.05;2.10;;;;;;;12.64;100.00;102912.56;5056070;28;20121;-72
2024/01/25 09:59:45;;;;;;;5.60;2.53;;;;;;;12.39;100.00;102681.81;5055199;28;20040;-73
2024/01/25 10:02:11;;;;;;;10.63;2.60;;;;;;;11.98;100.00;102507.22;5058962;28;20181;-74
2024/01/25 10:04:37;;;;;;;8.80;3.38;;;;;;;12.83;100.00;102526.38;5056634;28;20033;-73
2024/01/25 10:07:03;;;;;;;6.65;3.30;;;;;;;12.60;100.00;102421.63;5057578;28;20050;-72
2024/01/25 10:09:38;;;;;;;12.35;2.90;;;;;;;12.28;100.00;102333.09;5060649;28;20495;-72
2024/01/25 10:12:05;;;;;;;6.88;2.35;;;;;;;12.27;100.00;102252.31;5057252;28;20033;-75
2024/01/25 10:14:30;;;;;;;9.18;2.40;;;;;;;12.91;100.00;102193.59;5056069;28;20029;-74
2024/01/25 10:16:57;;;;;;;7.47;2.90;;;;;;;12.79;100.00;102025.19;5064915;28;20054;-75
2024/01/25 10:19:23;;;;;;;8.65;3.08;;;;;;;12.91;100.00;101845.56;5060658;28;20028;-75
2024/01/25 10:21:49;;;;;;;5.45;2.22;;;;;;;13.00;100.00;101687.16;5058364;28;20505;-74
2024/01/25 10:24:15;;;;;;;6.50;2.67;;;;;;;11.96;100.00;101324.38;5055659;28;20040;-73
2024/01/25 10:26:42;;;;;;;14.00;2.55;;;;;;;12.85;100.00;101337.63;5062055;28;20032;-73
2024/01/25 10:29:09;;;;;;;7.95;2.53;;;;;;;12.57;100.00;101091.44;5059169;28;20066;-73
2024/01/25 10:31:40;;;;;;;8.05;2.50;;;;;;;13.11;100.00;101033.41;5063342;28;20380;-72
2024/01/25 10:34:08;;;;;;;10.38;2.20;;;;;;;13.09;100.00;100783.25;5057731;28;20056;-72
2024/01/25 10:36:35;;;;;;;9.82;2.67;;;;;;;12.94;100.00;100655.97;5056587;28;20179;-71
2024/01/25 10:39:04;;;;;;;15.10;2.53;;;;;;;13.17;100.00;100510.69;5057027;28;20036;-71
2024/01/25 10:41:31;;;;;;;8.05;2.30;;;;;;;13.08;100.00;100390.97;5058670;28;20031;-71
2024/01/25 10:43:56;;;;;;;8.95;2.00;;;;;;;13.00;100.00;100454.16;5063472;28;20514;-72
2024/01/25 10:46:23;;;;;;;8.65;3.42;;;;;;;12.98;100.00;100353.81;5054118;28;20036;-72
2024/01/25 10:48:50;;;;;;;11.15;3.53;;;;;;;12.28;100.00;100300.78;5057596;28;20090;-72
2024/01/25 10:51:18;;;;;;;12.40;3.28;;;;;;;12.29;100.00;100282.88;5060260;28;20043;-72
2024/01/25 10:53:44;;;;;;;8.75;2.67;;;;;;;13.16;100.00;100347.31;5036590;28;20060;-72
2024/01/25 10:56:10;;;;;;;12.82;2.47;;;;;;;12.65;100.00;100337.03;5057478;28;20062;-72
2024/01/25 10:58:36;;;;;;;9.45;2.47;;;;;;;13.27;100.00;100430.34;5058182;28;20115;-73
2024/01/25 11:01:03;;;;;;;10.45;2.58;;;;;;;13.34;100.00;100406.31;5056926;28;20116;-71
2024/01/25 11:03:34;;;;;;;8.95;2.00;;;;;;;12.85;100.00;100376.38;5058849;28;20029;-73